createdAt,value
2023-07-25T00:00:19.729Z,0.00
2023-07-25T00:01:19.830Z,0.00
2023-07-25T00:02:19.800Z,0.00
2023-07-25T00:03:19.873Z,0.00
2023-07-25T00:04:19.929Z,0.00
2023-07-25T00:05:19.918Z,0.00
2023-07-25T00:06:19.933Z,0.00
2023-07-25T00:07:19.967Z,0.00
2023-07-25T00:08:20.008Z,0.00
2023-07-25T00:09:20.034Z,0.00
2023-07-25T00:10:20.068Z,0.00
2023-07-25T00:11:20.102Z,0.00
2023-07-25T00:12:20.139Z,0.00
2023-07-25T00:13:20.172Z,0.00
2023-07-25T00:14:20.211Z,0.00
2023-07-25T00:15:20.248Z,0.00
2023-07-25T00:16:20.295Z,0.00
2023-07-25T00:17:20.308Z,0.00
2023-07-25T00:18:20.366Z,0.00
2023-07-25T00:19:20.382Z,0.00
2023-07-25T00:20:20.424Z,0.00
2023-07-25T00:21:20.487Z,0.00
2023-07-25T00:22:20.481Z,0.00
2023-07-25T00:23:20.518Z,0.00
2023-07-25T00:24:20.617Z,0.00
2023-07-25T00:25:20.610Z,0.00
2023-07-25T00:26:20.619Z,0.00
2023-07-25T00:27:20.652Z,0.00
2023-07-25T00:28:20.683Z,0.00
2023-07-25T00:29:20.719Z,0.00
2023-07-25T00:30:22.309Z,0.00
2023-07-25T00:31:20.793Z,0.00
2023-07-25T00:32:20.827Z,0.00
2023-07-25T00:33:20.857Z,0.00
2023-07-25T00:34:20.931Z,0.00
2023-07-25T00:35:20.934Z,0.00
2023-07-25T00:36:20.961Z,0.00
2023-07-25T00:37:20.994Z,0.00
2023-07-25T00:38:21.023Z,0.00
2023-07-25T00:39:21.059Z,0.00
2023-07-25T00:40:21.119Z,0.00
2023-07-25T00:41:21.124Z,0.00
2023-07-25T00:42:21.183Z,0.00
2023-07-25T00:43:21.191Z,0.00
2023-07-25T00:44:21.225Z,0.00
2023-07-25T00:45:21.262Z,0.00
2023-07-25T00:46:21.413Z,0.00
2023-07-25T00:47:21.329Z,0.00
2023-07-25T00:48:21.370Z,0.00
2023-07-25T00:49:21.396Z,0.00
2023-07-25T00:50:21.431Z,0.00
2023-07-25T00:51:21.472Z,0.00
2023-07-25T00:52:21.500Z,0.00
2023-07-25T00:53:21.532Z,0.00
2023-07-25T00:54:21.567Z,0.00
2023-07-25T00:55:21.608Z,0.00
2023-07-25T00:56:21.635Z,0.00
2023-07-25T00:57:21.671Z,0.00
2023-07-25T00:58:21.712Z,0.00
2023-07-25T00:59:21.738Z,0.00
2023-07-25T01:00:21.778Z,0.00
2023-07-25T01:01:21.863Z,0.00
2023-07-25T01:02:21.935Z,0.00
2023-07-25T01:03:21.955Z,0.00
2023-07-25T01:04:21.910Z,0.00
2023-07-25T01:05:21.950Z,0.00
2023-07-25T01:06:21.973Z,0.00
2023-07-25T01:07:22.007Z,0.00
2023-07-25T01:08:22.042Z,0.00
2023-07-25T01:09:22.080Z,0.00
2023-07-25T01:10:22.111Z,0.00
2023-07-25T01:11:22.144Z,0.00
2023-07-25T01:12:22.180Z,0.00
2023-07-25T01:13:22.212Z,0.00
2023-07-25T01:14:22.247Z,0.00
2023-07-25T01:15:22.286Z,0.00
2023-07-25T01:16:22.346Z,0.00
2023-07-25T01:17:22.351Z,0.00
2023-07-25T01:18:22.404Z,0.00
2023-07-25T01:19:22.426Z,0.00
2023-07-25T01:20:22.453Z,0.00
2023-07-25T01:21:22.476Z,0.00
2023-07-25T01:22:22.509Z,0.00
2023-07-25T01:23:22.544Z,0.00
2023-07-25T01:24:22.588Z,0.00
2023-07-25T01:25:22.611Z,0.00
2023-07-25T01:26:22.646Z,0.00
2023-07-25T01:27:22.678Z,0.00
2023-07-25T01:28:22.712Z,0.00
2023-07-25T01:29:22.747Z,0.00
2023-07-25T01:30:22.778Z,0.00
2023-07-25T01:31:22.820Z,0.00
2023-07-25T01:32:22.884Z,0.00
2023-07-25T01:33:22.884Z,0.00
2023-07-25T01:34:22.985Z,0.00
2023-07-25T01:35:22.952Z,0.00
2023-07-25T01:36:22.980Z,0.00
2023-07-25T01:37:23.017Z,0.00
2023-07-25T01:38:23.057Z,0.00
2023-07-25T01:39:23.086Z,0.00
2023-07-25T01:40:23.133Z,0.00
2023-07-25T01:41:23.162Z,0.00
2023-07-25T01:42:23.190Z,0.00
2023-07-25T01:43:23.227Z,0.00
2023-07-25T01:44:23.258Z,0.00
2023-07-25T01:45:23.425Z,0.00
2023-07-25T01:46:23.326Z,0.00
2023-07-25T01:47:23.405Z,0.00
2023-07-25T01:48:23.390Z,0.00
2023-07-25T01:49:23.431Z,0.00
2023-07-25T01:50:23.459Z,0.00
2023-07-25T01:51:23.496Z,0.00
2023-07-25T01:52:23.525Z,0.00
2023-07-25T01:53:23.571Z,0.00
2023-07-25T01:54:23.601Z,0.00
2023-07-25T01:55:23.629Z,0.00
2023-07-25T01:56:23.659Z,0.00
2023-07-25T01:57:23.708Z,0.00
2023-07-25T01:58:23.731Z,0.00
2023-07-25T01:59:23.761Z,0.00
2023-07-25T02:00:23.799Z,0.00
2023-07-25T02:01:23.856Z,0.00
2023-07-25T02:02:23.922Z,0.00
2023-07-25T02:03:23.975Z,0.00
2023-07-25T02:04:23.936Z,0.00
2023-07-25T02:05:23.966Z,0.00
2023-07-25T02:06:24.023Z,0.00
2023-07-25T02:07:25.720Z,0.00
2023-07-25T02:08:24.096Z,0.00
2023-07-25T02:09:24.105Z,0.00
2023-07-25T02:10:24.138Z,0.00
2023-07-25T02:11:24.174Z,0.00
2023-07-25T02:12:24.202Z,0.00
2023-07-25T02:13:24.237Z,0.00
2023-07-25T02:14:24.268Z,0.00
2023-07-25T02:15:24.319Z,0.00
2023-07-25T02:16:24.367Z,0.00
2023-07-25T02:17:24.408Z,0.00
2023-07-25T02:18:24.402Z,0.00
2023-07-25T02:19:24.436Z,0.00
2023-07-25T02:20:24.479Z,0.00
2023-07-25T02:21:24.504Z,0.00
2023-07-25T02:22:24.546Z,0.00
2023-07-25T02:23:24.574Z,0.00
2023-07-25T02:24:24.624Z,0.00
2023-07-25T02:25:24.653Z,0.00
2023-07-25T02:26:24.674Z,0.00
2023-07-25T02:27:24.708Z,0.00
2023-07-25T02:28:24.743Z,0.00
2023-07-25T02:29:24.775Z,0.00
2023-07-25T02:30:24.813Z,0.00
2023-07-25T02:31:24.904Z,0.00
2023-07-25T02:32:24.895Z,0.00
2023-07-25T02:33:24.917Z,0.00
2023-07-25T02:34:24.941Z,0.00
2023-07-25T02:35:24.986Z,0.00
2023-07-25T02:36:25.014Z,0.00
2023-07-25T02:37:25.069Z,0.00
2023-07-25T02:38:25.087Z,0.00
2023-07-25T02:39:25.123Z,0.00
2023-07-25T02:40:25.144Z,0.00
2023-07-25T02:41:25.191Z,0.00
2023-07-25T02:42:25.209Z,0.00
2023-07-25T02:43:25.250Z,0.00
2023-07-25T02:44:25.282Z,0.00
2023-07-25T02:45:25.316Z,0.00
2023-07-25T02:46:25.373Z,0.00
2023-07-25T02:47:25.400Z,0.00
2023-07-25T02:48:25.420Z,0.00
2023-07-25T02:49:25.451Z,0.00
2023-07-25T02:50:25.483Z,0.00
2023-07-25T02:51:25.522Z,0.00
2023-07-25T02:52:25.579Z,0.00
2023-07-25T02:53:25.587Z,0.00
2023-07-25T02:54:25.623Z,0.00
2023-07-25T02:55:25.654Z,0.00
2023-07-25T02:56:25.685Z,0.00
2023-07-25T02:57:25.729Z,0.00
2023-07-25T02:58:25.770Z,0.00
2023-07-25T02:59:25.802Z,0.00
2023-07-25T03:00:25.826Z,0.00
2023-07-25T03:01:25.867Z,0.00
2023-07-25T03:02:25.958Z,0.00
2023-07-25T03:03:25.925Z,0.00
2023-07-25T03:04:25.958Z,0.00
2023-07-25T03:05:25.993Z,0.00
2023-07-25T03:06:26.027Z,0.00
2023-07-25T03:07:26.057Z,0.00
2023-07-25T03:08:26.097Z,4.00
2023-07-25T03:09:26.129Z,4.00
2023-07-25T03:10:26.166Z,4.00
2023-07-25T03:11:26.194Z,0.00
2023-07-25T03:12:26.227Z,0.00
2023-07-25T03:13:26.263Z,0.00
2023-07-25T03:14:26.297Z,4.00
2023-07-25T03:15:26.332Z,4.00
2023-07-25T03:16:26.381Z,4.00
2023-07-25T03:17:26.428Z,0.00
2023-07-25T03:18:26.432Z,4.00
2023-07-25T03:19:26.467Z,4.00
2023-07-25T03:20:26.501Z,4.00
2023-07-25T03:21:26.530Z,4.00
2023-07-25T03:22:26.563Z,4.00
2023-07-25T03:23:26.643Z,4.00
2023-07-25T03:24:26.664Z,4.00
2023-07-25T03:25:26.667Z,4.00
2023-07-25T03:26:26.704Z,4.00
2023-07-25T03:27:26.737Z,4.00
2023-07-25T03:28:26.771Z,8.00
2023-07-25T03:29:26.829Z,8.00
2023-07-25T03:30:26.864Z,8.00
2023-07-25T03:31:26.867Z,12.00
2023-07-25T03:32:26.926Z,16.00
2023-07-25T03:33:26.947Z,20.00
2023-07-25T03:34:26.972Z,28.00
2023-07-25T03:35:27.001Z,36.00
2023-07-25T03:36:27.035Z,40.00
2023-07-25T03:37:27.076Z,40.00
2023-07-25T03:38:34.288Z,40.00
2023-07-25T03:40:20.297Z,36.00
2023-07-25T03:41:20.295Z,36.00
2023-07-25T03:43:13.442Z,28.00
2023-07-25T03:44:13.487Z,24.00
2023-07-25T03:46:06.702Z,16.00
2023-07-25T03:47:06.658Z,16.00
2023-07-25T03:48:59.667Z,16.00
2023-07-25T03:49:59.677Z,16.00
2023-07-25T03:52:03.723Z,28.00
2023-07-25T03:53:03.760Z,32.00
2023-07-25T03:55:07.799Z,36.00
2023-07-25T03:56:07.825Z,36.00
2023-07-25T03:58:11.899Z,44.00
2023-07-25T03:59:11.897Z,52.00
2023-07-25T04:01:05.096Z,64.00
2023-07-25T04:02:05.190Z,64.00
2023-07-25T04:04:09.248Z,76.00
2023-07-25T04:05:09.205Z,76.00
2023-07-25T04:07:13.214Z,72.00
2023-07-25T04:08:13.235Z,68.00
2023-07-25T04:10:17.290Z,76.00
2023-07-25T04:11:17.315Z,72.00
2023-07-25T04:13:10.466Z,76.00
2023-07-25T04:14:10.501Z,76.00
2023-07-25T04:16:03.687Z,80.00
2023-07-25T04:17:03.679Z,92.00
2023-07-25T04:18:56.687Z,104.00
2023-07-25T04:19:56.688Z,112.00
2023-07-25T04:22:00.747Z,92.00
2023-07-25T04:23:00.770Z,88.00
2023-07-25T04:25:04.801Z,88.00
2023-07-25T04:26:04.829Z,92.00
2023-07-25T04:28:08.915Z,88.00
2023-07-25T04:29:08.910Z,92.00
2023-07-25T04:31:02.095Z,88.00
2023-07-25T04:32:02.150Z,100.00
2023-07-25T04:34:06.339Z,104.00
2023-07-25T04:35:06.202Z,104.00
2023-07-25T04:37:10.284Z,120.00
2023-07-25T04:38:10.278Z,128.00
2023-07-25T04:40:14.324Z,156.00
2023-07-25T04:41:14.351Z,148.00
2023-07-25T04:43:18.401Z,136.00
2023-07-25T04:44:18.432Z,132.00
2023-07-25T04:46:22.520Z,148.00
2023-07-25T04:47:22.507Z,152.00
2023-07-25T04:49:15.514Z,164.00
2023-07-25T04:50:15.545Z,160.00
2023-07-25T04:52:19.618Z,164.00
2023-07-25T04:53:19.618Z,168.00
2023-07-25T04:55:12.796Z,144.00
2023-07-25T04:56:12.807Z,156.00
2023-07-25T04:58:16.857Z,132.00
2023-07-25T04:59:16.888Z,124.00
2023-07-25T05:01:10.047Z,120.00
2023-07-25T05:02:10.079Z,100.00
2023-07-25T05:04:14.149Z,124.00
2023-07-25T05:05:14.148Z,120.00
2023-07-25T05:07:18.202Z,120.00
2023-07-25T05:08:18.224Z,124.00
2023-07-25T05:10:11.431Z,156.00
2023-07-25T05:11:11.414Z,172.00
2023-07-25T05:13:15.461Z,172.00
2023-07-25T05:14:15.496Z,172.00
2023-07-25T05:16:19.598Z,160.00
2023-07-25T05:17:19.564Z,152.00
2023-07-25T05:19:12.563Z,184.00
2023-07-25T05:20:12.568Z,220.00
2023-07-25T05:22:16.604Z,216.00
2023-07-25T05:23:16.656Z,236.00
2023-07-25T05:25:20.732Z,252.00
2023-07-25T05:26:20.706Z,256.00
2023-07-25T05:28:24.764Z,228.00
2023-07-25T05:29:24.788Z,212.00
2023-07-25T05:31:29.165Z,232.00
2023-07-25T05:32:28.887Z,244.00
2023-07-25T05:34:32.979Z,240.00
2023-07-25T05:35:32.968Z,240.00
2023-07-25T05:37:37.034Z,252.00
2023-07-25T05:38:37.033Z,268.00
2023-07-25T05:40:41.070Z,292.00
2023-07-25T05:41:41.110Z,296.00
2023-07-25T05:43:45.142Z,308.00
2023-07-25T05:44:45.172Z,316.00
2023-07-25T05:46:49.216Z,336.00
2023-07-25T05:47:49.300Z,364.00
2023-07-25T05:49:42.243Z,396.00
2023-07-25T05:50:42.245Z,408.00
2023-07-25T05:52:35.406Z,412.00
2023-07-25T05:53:35.440Z,428.00
2023-07-25T05:55:39.509Z,380.00
2023-07-25T05:56:39.513Z,376.00
2023-07-25T05:58:43.616Z,400.00
2023-07-25T05:59:43.617Z,412.00
2023-07-25T06:01:47.652Z,396.00
2023-07-25T06:02:47.710Z,472.00
2023-07-25T06:04:51.720Z,464.00
2023-07-25T06:05:51.752Z,476.00
2023-07-25T06:07:55.845Z,424.00
2023-07-25T06:08:55.867Z,460.00
2023-07-25T06:10:59.914Z,432.00
2023-07-25T06:11:59.935Z,424.00
2023-07-25T06:14:03.976Z,484.00
2023-07-25T06:15:04.004Z,400.00
2023-07-25T06:16:57.187Z,376.00
2023-07-25T06:17:57.238Z,376.00
2023-07-25T06:19:50.161Z,384.00
2023-07-25T06:20:50.192Z,400.00
2023-07-25T06:22:54.270Z,404.00
2023-07-25T06:23:54.263Z,408.00
2023-07-25T06:25:58.301Z,408.00
2023-07-25T06:26:58.334Z,420.00
2023-07-25T06:28:51.301Z,448.00
2023-07-25T06:29:51.353Z,448.00
2023-07-25T06:31:55.420Z,552.00
2023-07-25T06:32:55.845Z,452.00
2023-07-25T06:34:59.461Z,440.00
2023-07-25T06:35:59.490Z,504.00
2023-07-25T06:38:03.570Z,500.00
2023-07-25T06:39:03.576Z,524.00
2023-07-25T06:41:07.621Z,556.00
2023-07-25T06:42:07.672Z,580.00
2023-07-25T06:44:15.214Z,564.00
2023-07-25T06:45:11.731Z,452.00
2023-07-25T06:47:15.805Z,564.00
2023-07-25T06:48:15.809Z,556.00
2023-07-25T06:50:19.857Z,596.00
2023-07-25T06:51:19.940Z,548.00
2023-07-25T06:53:23.975Z,568.00
2023-07-25T06:54:23.980Z,576.00
2023-07-25T06:55:24.010Z,516.00
2023-07-25T06:56:24.053Z,496.00
2023-07-25T06:57:24.078Z,488.00
2023-07-25T06:58:24.135Z,496.00
2023-07-25T06:59:24.167Z,560.00
2023-07-25T07:00:24.180Z,508.00
2023-07-25T07:01:24.262Z,512.00
2023-07-25T07:02:24.364Z,532.00
2023-07-25T07:03:24.343Z,528.00
2023-07-25T07:04:24.325Z,528.00
2023-07-25T07:05:29.976Z,540.00
2023-07-25T07:06:24.404Z,548.00
2023-07-25T07:07:24.429Z,572.00
2023-07-25T07:08:24.461Z,572.00
2023-07-25T07:09:24.504Z,580.00
2023-07-25T07:10:24.554Z,588.00
2023-07-25T07:11:24.569Z,620.00
2023-07-25T07:12:24.604Z,736.00
2023-07-25T07:13:24.643Z,752.00
2023-07-25T07:14:24.677Z,768.00
2023-07-25T07:15:24.712Z,760.00
2023-07-25T07:16:24.768Z,740.00
2023-07-25T07:17:24.833Z,664.00
2023-07-25T07:18:24.817Z,660.00
2023-07-25T07:19:24.853Z,628.00
2023-07-25T07:20:24.944Z,596.00
2023-07-25T07:21:24.929Z,612.00
2023-07-25T07:22:25.000Z,620.00
2023-07-25T07:23:25.001Z,624.00
2023-07-25T07:24:25.058Z,636.00
2023-07-25T07:25:25.066Z,688.00
2023-07-25T07:26:25.103Z,720.00
2023-07-25T07:27:25.135Z,664.00
2023-07-25T07:28:25.169Z,608.00
2023-07-25T07:29:25.205Z,628.00
2023-07-25T07:30:25.242Z,684.00
2023-07-25T07:31:25.286Z,604.00
2023-07-25T07:32:25.398Z,740.00
2023-07-25T07:33:25.355Z,744.00
2023-07-25T07:34:25.394Z,648.00
2023-07-25T07:35:25.429Z,668.00
2023-07-25T07:36:25.469Z,724.00
2023-07-25T07:37:25.488Z,684.00
2023-07-25T07:38:25.522Z,728.00
2023-07-25T07:39:25.559Z,660.00
2023-07-25T07:40:25.656Z,768.00
2023-07-25T07:41:25.646Z,756.00
2023-07-25T07:42:25.692Z,764.00
2023-07-25T07:43:25.704Z,752.00
2023-07-25T07:44:25.889Z,744.00
2023-07-25T07:45:25.774Z,560.00
2023-07-25T07:46:25.828Z,680.00
2023-07-25T07:47:25.905Z,572.00
2023-07-25T07:48:25.877Z,540.00
2023-07-25T07:49:25.922Z,524.00
2023-07-25T07:50:25.946Z,556.00
2023-07-25T07:51:25.990Z,568.00
2023-07-25T07:52:37.262Z,800.00
2023-07-25T07:53:26.057Z,816.00
2023-07-25T07:54:26.099Z,728.00
2023-07-25T07:55:26.130Z,792.00
2023-07-25T07:56:28.130Z,800.00
2023-07-25T07:57:26.216Z,812.00
2023-07-25T07:58:26.234Z,848.00
2023-07-25T07:59:26.283Z,876.00
2023-07-25T08:00:26.324Z,884.00
2023-07-25T08:01:26.366Z,880.00
2023-07-25T08:02:26.444Z,696.00
2023-07-25T08:03:26.416Z,640.00
2023-07-25T08:04:26.462Z,864.00
2023-07-25T08:05:26.495Z,876.00
2023-07-25T08:06:26.521Z,896.00
2023-07-25T08:07:26.562Z,668.00
2023-07-25T08:08:26.585Z,872.00
2023-07-25T08:09:26.629Z,868.00
2023-07-25T08:10:26.665Z,860.00
2023-07-25T08:11:26.696Z,852.00
2023-07-25T08:12:26.748Z,800.00
2023-07-25T08:13:26.767Z,720.00
2023-07-25T08:14:26.811Z,864.00
2023-07-25T08:15:26.841Z,880.00
2023-07-25T08:16:26.882Z,612.00
2023-07-25T08:17:26.911Z,908.00
2023-07-25T08:18:26.942Z,896.00
2023-07-25T08:19:26.976Z,940.00
2023-07-25T08:20:27.010Z,980.00
2023-07-25T08:21:27.053Z,736.00
2023-07-25T08:22:27.082Z,700.00
2023-07-25T08:23:27.118Z,672.00
2023-07-25T08:24:27.187Z,656.00
2023-07-25T08:25:27.191Z,692.00
2023-07-25T08:26:27.233Z,992.00
2023-07-25T08:27:27.259Z,944.00
2023-07-25T08:28:27.295Z,988.00
2023-07-25T08:29:27.349Z,676.00
2023-07-25T08:30:27.382Z,668.00
2023-07-25T08:31:27.471Z,928.00
2023-07-25T08:32:27.590Z,716.00
2023-07-25T08:33:27.476Z,980.00
2023-07-25T08:34:27.510Z,980.00
2023-07-25T08:35:27.588Z,984.00
2023-07-25T08:36:27.583Z,1000.00
2023-07-25T08:37:27.631Z,1024.00
2023-07-25T08:38:27.663Z,1036.00
2023-07-25T08:39:27.692Z,1072.00
2023-07-25T08:40:27.725Z,1092.00
2023-07-25T08:41:27.768Z,1064.00
2023-07-25T08:42:27.802Z,1144.00
2023-07-25T08:43:27.838Z,1180.00
2023-07-25T08:44:27.871Z,1212.00
2023-07-25T08:45:28.035Z,1036.00
2023-07-25T08:46:27.993Z,920.00
2023-07-25T08:47:28.067Z,1108.00
2023-07-25T08:48:29.265Z,1268.00
2023-07-25T08:49:28.059Z,984.00
2023-07-25T08:50:28.093Z,1044.00
2023-07-25T08:51:28.154Z,1220.00
2023-07-25T08:52:28.174Z,1024.00
2023-07-25T08:53:28.208Z,844.00
2023-07-25T08:54:28.237Z,812.00
2023-07-25T08:55:28.273Z,804.00
2023-07-25T08:56:28.305Z,816.00
2023-07-25T08:57:28.365Z,864.00
2023-07-25T08:58:28.382Z,1128.00
2023-07-25T08:59:28.417Z,1168.00
2023-07-25T09:00:28.454Z,872.00
2023-07-25T09:01:28.522Z,876.00
2023-07-25T09:02:28.574Z,876.00
2023-07-25T09:03:28.641Z,968.00
2023-07-25T09:04:28.601Z,868.00
2023-07-25T09:05:30.469Z,1196.00
2023-07-25T09:06:28.678Z,1236.00
2023-07-25T09:07:28.714Z,852.00
2023-07-25T09:08:28.748Z,864.00
2023-07-25T09:09:28.783Z,1164.00
2023-07-25T09:10:28.821Z,1152.00
2023-07-25T09:11:28.944Z,876.00
2023-07-25T09:12:28.890Z,1148.00
2023-07-25T09:13:28.939Z,1164.00
2023-07-25T09:14:29.016Z,1176.00
2023-07-25T09:15:29.005Z,916.00
2023-07-25T09:16:29.090Z,1248.00
2023-07-25T09:17:29.132Z,1280.00
2023-07-25T09:18:29.114Z,1312.00
2023-07-25T09:19:29.152Z,1296.00
2023-07-25T09:20:29.207Z,1348.00
2023-07-25T09:21:29.891Z,1264.00
2023-07-25T09:22:29.290Z,1376.00
2023-07-25T09:23:29.300Z,1400.00
2023-07-25T09:24:29.375Z,1444.00
2023-07-25T09:25:29.372Z,1080.00
2023-07-25T09:26:29.418Z,1064.00
2023-07-25T09:27:29.476Z,1152.00
2023-07-25T09:28:29.498Z,1024.00
2023-07-25T09:29:29.524Z,976.00
2023-07-25T09:30:29.576Z,892.00
2023-07-25T09:31:29.854Z,820.00
2023-07-25T09:32:29.650Z,752.00
2023-07-25T09:33:29.674Z,708.00
2023-07-25T09:34:29.715Z,676.00
2023-07-25T09:35:29.750Z,676.00
2023-07-25T09:36:29.783Z,668.00
2023-07-25T09:37:29.848Z,668.00
2023-07-25T09:38:29.867Z,676.00
2023-07-25T09:39:29.893Z,704.00
2023-07-25T09:40:29.929Z,728.00
2023-07-25T09:41:30.301Z,788.00
2023-07-25T09:42:30.015Z,796.00
2023-07-25T09:43:30.040Z,792.00
2023-07-25T09:44:30.074Z,792.00
2023-07-25T09:45:30.241Z,788.00
2023-07-25T09:46:30.154Z,788.00
2023-07-25T09:47:30.202Z,764.00
2023-07-25T09:48:30.242Z,744.00
2023-07-25T09:49:30.266Z,724.00
2023-07-25T09:50:30.300Z,720.00
2023-07-25T09:51:32.408Z,724.00
2023-07-25T09:52:30.385Z,736.00
2023-07-25T09:53:30.408Z,748.00
2023-07-25T09:54:30.447Z,744.00
2023-07-25T09:55:30.500Z,728.00
2023-07-25T09:56:30.522Z,704.00
2023-07-25T09:57:30.556Z,680.00
2023-07-25T09:58:30.594Z,656.00
2023-07-25T09:59:30.639Z,640.00
2023-07-25T10:00:30.668Z,636.00
2023-07-25T10:01:31.246Z,644.00
2023-07-25T10:02:30.775Z,660.00
2023-07-25T10:03:30.833Z,676.00
2023-07-25T10:04:30.818Z,676.00
2023-07-25T10:05:30.856Z,668.00
2023-07-25T10:06:30.896Z,656.00
2023-07-25T10:07:30.925Z,640.00
2023-07-25T10:08:30.965Z,644.00
2023-07-25T10:09:31.006Z,636.00
2023-07-25T10:10:31.039Z,636.00
2023-07-25T10:11:31.256Z,620.00
2023-07-25T10:12:31.124Z,644.00
2023-07-25T10:13:31.153Z,700.00
2023-07-25T10:14:31.183Z,648.00
2023-07-25T10:15:31.226Z,676.00
2023-07-25T10:16:31.255Z,684.00
2023-07-25T10:17:31.328Z,704.00
2023-07-25T10:18:31.329Z,720.00
2023-07-25T10:19:31.366Z,748.00
2023-07-25T10:20:31.418Z,772.00
2023-07-25T10:21:31.685Z,788.00
2023-07-25T10:22:31.476Z,808.00
2023-07-25T10:23:31.513Z,812.00
2023-07-25T10:24:31.569Z,840.00
2023-07-25T10:25:31.589Z,868.00
2023-07-25T10:26:31.630Z,872.00
2023-07-25T10:27:31.661Z,872.00
2023-07-25T10:28:31.703Z,896.00
2023-07-25T10:29:31.741Z,916.00
2023-07-25T10:30:31.774Z,932.00
2023-07-25T10:31:32.263Z,956.00
2023-07-25T10:32:31.871Z,1020.00
2023-07-25T10:33:31.882Z,1148.00
2023-07-25T10:34:31.919Z,1100.00
2023-07-25T10:35:31.953Z,1100.00
2023-07-25T10:36:32.001Z,1136.00
2023-07-25T10:37:32.201Z,1144.00
2023-07-25T10:38:32.086Z,1156.00
2023-07-25T10:39:32.106Z,1180.00
2023-07-25T10:40:32.144Z,1192.00
2023-07-25T10:41:32.498Z,1188.00
2023-07-25T10:42:32.221Z,1168.00
2023-07-25T10:43:32.267Z,1156.00
2023-07-25T10:44:32.294Z,1116.00
2023-07-25T10:45:32.332Z,1096.00
2023-07-25T10:46:32.391Z,1396.00
2023-07-25T10:47:32.434Z,1232.00
2023-07-25T10:48:32.462Z,1288.00
2023-07-25T10:49:32.482Z,1332.00
2023-07-25T10:50:32.513Z,912.00
2023-07-25T10:51:32.774Z,852.00
2023-07-25T10:52:32.587Z,832.00
2023-07-25T10:53:32.636Z,800.00
2023-07-25T10:54:32.660Z,772.00
2023-07-25T10:55:32.717Z,712.00
2023-07-25T10:56:32.744Z,668.00
2023-07-25T10:57:32.787Z,636.00
2023-07-25T10:58:32.825Z,608.00
2023-07-25T10:59:32.895Z,596.00
2023-07-25T11:00:32.886Z,576.00
2023-07-25T11:01:33.272Z,568.00
2023-07-25T11:02:33.033Z,564.00
2023-07-25T11:03:33.001Z,544.00
2023-07-25T11:04:33.272Z,540.00
2023-07-25T11:05:33.075Z,520.00
2023-07-25T11:06:33.108Z,512.00
2023-07-25T11:07:33.145Z,520.00
2023-07-25T11:08:33.180Z,528.00
2023-07-25T11:09:33.218Z,532.00
2023-07-25T11:10:33.265Z,540.00
2023-07-25T11:11:33.571Z,560.00
2023-07-25T11:12:33.325Z,584.00
2023-07-25T11:13:33.369Z,608.00
2023-07-25T11:14:33.410Z,636.00
2023-07-25T11:15:45.709Z,664.00
2023-07-25T11:16:33.528Z,692.00
2023-07-25T11:17:33.524Z,728.00
2023-07-25T11:18:33.575Z,748.00
2023-07-25T11:19:33.584Z,760.00
2023-07-25T11:20:33.622Z,768.00
2023-07-25T11:21:33.897Z,788.00
2023-07-25T11:22:33.696Z,808.00
2023-07-25T11:23:33.735Z,820.00
2023-07-25T11:24:33.812Z,844.00
2023-07-25T11:25:33.831Z,864.00
2023-07-25T11:26:33.924Z,908.00
2023-07-25T11:27:33.881Z,932.00
2023-07-25T11:28:33.918Z,952.00
2023-07-25T11:29:33.956Z,984.00
2023-07-25T11:30:34.029Z,1000.00
2023-07-25T11:31:34.306Z,1028.00
2023-07-25T11:32:34.088Z,1064.00
2023-07-25T11:33:34.101Z,1116.00
2023-07-25T11:34:34.138Z,1216.00
2023-07-25T11:35:34.177Z,1368.00
2023-07-25T11:36:34.220Z,1540.00
2023-07-25T11:37:34.269Z,1556.00
2023-07-25T11:38:34.290Z,1556.00
2023-07-25T11:39:34.324Z,1540.00
2023-07-25T11:40:34.362Z,1524.00
2023-07-25T11:41:34.412Z,1516.00
2023-07-25T11:42:34.438Z,1500.00
2023-07-25T11:43:34.475Z,1492.00
2023-07-25T11:44:34.533Z,1488.00
2023-07-25T11:45:34.549Z,1492.00
2023-07-25T11:46:34.602Z,1484.00
2023-07-25T11:47:34.717Z,1464.00
2023-07-25T11:48:34.661Z,1452.00
2023-07-25T11:49:49.636Z,1464.00
2023-07-25T11:50:35.031Z,1484.00
2023-07-25T11:51:34.771Z,1460.00
2023-07-25T11:52:34.812Z,1468.00
2023-07-25T11:53:34.857Z,1436.00
2023-07-25T11:54:34.909Z,1444.00
2023-07-25T11:55:34.937Z,1456.00
2023-07-25T11:56:34.963Z,1556.00
2023-07-25T11:57:35.017Z,1580.00
2023-07-25T11:58:35.035Z,1584.00
2023-07-25T11:59:35.074Z,1580.00
2023-07-25T12:00:35.109Z,1580.00
2023-07-25T12:01:35.453Z,1584.00
2023-07-25T12:02:35.226Z,1296.00
2023-07-25T12:12:51.160Z,1500.00
2023-07-25T12:13:49.034Z,1276.00
2023-07-25T12:15:42.360Z,1172.00
2023-07-25T12:16:42.318Z,1168.00
2023-07-25T12:18:35.452Z,1172.00
2023-07-25T12:19:35.487Z,1172.00
2023-07-25T12:21:28.716Z,1116.00
2023-07-25T12:22:28.729Z,1072.00
2023-07-25T12:24:21.981Z,988.00
2023-07-25T12:25:21.961Z,940.00
2023-07-25T12:27:15.116Z,848.00
2023-07-25T12:28:15.156Z,812.00
2023-07-25T12:30:19.247Z,756.00
2023-07-25T12:31:19.283Z,736.00
2023-07-25T12:33:13.753Z,680.00
2023-07-25T12:34:13.768Z,644.00
2023-07-25T12:36:06.893Z,604.00
2023-07-25T12:37:07.060Z,604.00
2023-07-25T12:39:00.105Z,600.00
2023-07-25T12:40:00.164Z,600.00
2023-07-25T12:41:53.336Z,596.00
2023-07-25T12:42:53.321Z,612.00
2023-07-25T12:43:53.358Z,608.00
2023-07-25T12:44:53.399Z,612.00
2023-07-25T12:45:53.504Z,620.00
2023-07-25T12:46:53.473Z,636.00
2023-07-25T12:51:27.654Z,1100.00
2023-07-25T12:51:57.802Z,1108.00
2023-07-25T12:53:50.966Z,1124.00
2023-07-25T12:54:51.001Z,1048.00
2023-07-25T12:56:44.994Z,1116.00
2023-07-25T12:57:44.400Z,1008.00
2023-07-25T12:59:37.385Z,832.00
2023-07-25T13:03:23.152Z,968.00
2023-07-25T13:04:23.138Z,1048.00
2023-07-25T13:06:16.158Z,1108.00
2023-07-25T13:07:16.871Z,1168.00
2023-07-25T13:09:09.216Z,1236.00
2023-07-25T13:10:09.260Z,1356.00
2023-07-25T13:12:04.403Z,1324.00
2023-07-25T13:13:03.146Z,1248.00
2023-07-25T13:14:56.343Z,1124.00
2023-07-25T13:15:56.388Z,1108.00
2023-07-25T13:17:49.709Z,1020.00
2023-07-25T13:18:50.367Z,988.00
2023-07-25T13:20:43.560Z,952.00
2023-07-25T13:21:43.563Z,908.00
2023-07-25T13:23:36.726Z,928.00
2023-07-25T13:24:36.772Z,936.00
2023-07-25T13:26:29.777Z,972.00
2023-07-25T13:27:29.777Z,892.00
2023-07-25T13:29:22.796Z,972.00
2023-07-25T13:30:22.841Z,948.00
2023-07-25T13:32:16.002Z,992.00
2023-07-25T13:33:16.093Z,1032.00
2023-07-25T13:35:09.021Z,1072.00
2023-07-25T13:36:09.057Z,1092.00
2023-07-25T13:38:13.242Z,1044.00
2023-07-25T13:39:13.205Z,988.00
2023-07-25T13:41:06.187Z,852.00
2023-07-25T13:42:06.232Z,856.00
2023-07-25T13:43:59.782Z,872.00
2023-07-25T13:44:59.780Z,916.00
2023-07-25T13:46:01.855Z,888.00
2023-07-25T13:46:59.857Z,940.00
2023-07-25T13:47:59.927Z,984.00
2023-07-25T13:48:59.931Z,1060.00
2023-07-25T13:49:59.973Z,1104.00
2023-07-25T13:51:00.023Z,1192.00
2023-07-25T13:52:02.774Z,1248.00
2023-07-25T13:53:00.085Z,1292.00
2023-07-25T13:54:00.130Z,1308.00
2023-07-25T13:55:00.166Z,1400.00
2023-07-25T13:56:00.701Z,1536.00
2023-07-25T13:57:00.240Z,1536.00
2023-07-25T13:58:09.876Z,1624.00
2023-07-25T13:59:00.317Z,1620.00
2023-07-25T14:00:00.377Z,1592.00
2023-07-25T14:01:00.422Z,1560.00
2023-07-25T14:02:01.243Z,1540.00
2023-07-25T14:03:00.510Z,1504.00
2023-07-25T14:04:00.519Z,1460.00
2023-07-25T14:05:00.651Z,1360.00
2023-07-25T14:06:00.598Z,1380.00
2023-07-25T14:07:00.629Z,1392.00
2023-07-25T14:08:00.677Z,1272.00
2023-07-25T14:09:00.710Z,1272.00
2023-07-25T14:10:00.744Z,1236.00
2023-07-25T14:11:00.785Z,1280.00
2023-07-25T14:12:00.818Z,1324.00
2023-07-25T14:13:00.854Z,1292.00
2023-07-25T14:14:00.896Z,1428.00
2023-07-25T14:15:02.434Z,1388.00
2023-07-25T14:16:01.078Z,1408.00
2023-07-25T14:17:01.017Z,1408.00
2023-07-25T14:18:01.435Z,1404.00
2023-07-25T14:19:01.088Z,1404.00
2023-07-25T14:20:01.129Z,1352.00
2023-07-25T14:21:01.420Z,1320.00
2023-07-25T14:22:01.209Z,1308.00
2023-07-25T14:23:01.260Z,1304.00
2023-07-25T14:24:01.287Z,1364.00